sensor_id;sensor_type;location;lat;lon;timestamp;P1;durP1;ratioP1;P2;durP2;ratioP2
3249;SDS011;1637;42.020;23.992;2023-06-10T00:00:39;65.70;;;38.50;;
3249;SDS011;1637;42.020;23.992;2023-06-10T00:03:07;65.50;;;42.03;;
3249;SDS011;1637;42.020;23.992;2023-06-10T00:05:35;60.43;;;40.70;;
3249;SDS011;1637;42.020;23.992;2023-06-10T00:08:04;75.53;;;48.97;;
3249;SDS011;1637;42.020;23.992;2023-06-10T00:10:33;116.47;;;69.60;;
3249;SDS011;1637;42.020;23.992;2023-06-10T00:13:00;102.30;;;64.67;;
3249;SDS011;1637;42.020;23.992;2023-06-10T00:15:27;86.57;;;53.43;;
3249;SDS011;1637;42.020;23.992;2023-06-10T00:17:54;97.93;;;60.87;;
3249;SDS011;1637;42.020;23.992;2023-06-10T00:20:21;99.80;;;63.70;;
3249;SDS011;1637;42.020;23.992;2023-06-10T00:22:50;107.87;;;66.23;;
3249;SDS011;1637;42.020;23.992;2023-06-10T00:25:17;98.00;;;58.37;;
3249;SDS011;1637;42.020;23.992;2023-06-10T00:27:44;87.20;;;47.70;;
3249;SDS011;1637;42.020;23.992;2023-06-10T00:30:11;84.23;;;50.90;;
3249;SDS011;1637;42.020;23.992;2023-06-10T00:32:38;92.20;;;51.70;;
3249;SDS011;1637;42.020;23.992;2023-06-10T00:35:05;62.80;;;40.43;;
3249;SDS011;1637;42.020;23.992;2023-06-10T00:37:32;61.63;;;38.10;;
3249;SDS011;1637;42.020;23.992;2023-06-10T00:40:03;27.67;;;18.60;;
3249;SDS011;1637;42.020;23.992;2023-06-10T00:42:30;14.50;;;10.00;;
3249;SDS011;1637;42.020;23.992;2023-06-10T00:44:57;8.97;;;7.20;;
3249;SDS011;1637;42.020;23.992;2023-06-10T00:47:24;9.43;;;7.43;;
3249;SDS011;1637;42.020;23.992;2023-06-10T00:49:52;10.23;;;6.70;;
3249;SDS011;1637;42.020;23.992;2023-06-10T00:52:20;6.10;;;5.50;;
3249;SDS011;1637;42.020;23.992;2023-06-10T00:54:50;6.47;;;5.00;;
3249;SDS011;1637;42.020;23.992;2023-06-10T00:57:19;5.87;;;5.07;;
3249;SDS011;1637;42.020;23.992;2023-06-10T00:59:47;5.93;;;4.83;;
3249;SDS011;1637;42.020;23.992;2023-06-10T01:02:15;8.30;;;5.70;;
3249;SDS011;1637;42.020;23.992;2023-06-10T01:04:42;8.70;;;6.30;;
3249;SDS011;1637;42.020;23.992;2023-06-10T01:07:10;7.80;;;5.90;;
3249;SDS011;1637;42.020;23.992;2023-06-10T01:09:45;5.20;;;4.67;;
3249;SDS011;1637;42.020;23.992;2023-06-10T01:12:21;7.30;;;5.00;;
3249;SDS011;1637;42.020;23.992;2023-06-10T01:14:55;6.20;;;5.60;;
3249;SDS011;1637;42.020;23.992;2023-06-10T01:17:23;8.60;;;6.80;;
3249;SDS011;1637;42.020;23.992;2023-06-10T01:19:55;9.13;;;6.80;;
3249;SDS011;1637;42.020;23.992;2023-06-10T01:22:24;11.33;;;7.13;;
3249;SDS011;1637;42.020;23.992;2023-06-10T01:24:53;11.57;;;7.13;;
3249;SDS011;1637;42.020;23.992;2023-06-10T01:27:23;10.73;;;7.60;;
3249;SDS011;1637;42.020;23.992;2023-06-10T01:29:56;9.00;;;7.73;;
3249;SDS011;1637;42.020;23.992;2023-06-10T01:32:29;7.30;;;6.40;;
3249;SDS011;1637;42.020;23.992;2023-06-10T01:35:01;7.70;;;6.90;;
3249;SDS011;1637;42.020;23.992;2023-06-10T01:37:31;7.70;;;6.60;;
3249;SDS011;1637;42.020;23.992;2023-06-10T01:39:59;10.60;;;6.73;;
3249;SDS011;1637;42.020;23.992;2023-06-10T01:42:31;7.90;;;6.53;;
3249;SDS011;1637;42.020;23.992;2023-06-10T01:44:58;9.10;;;7.57;;
3249;SDS011;1637;42.020;23.992;2023-06-10T01:47:25;8.10;;;6.87;;
3249;SDS011;1637;42.020;23.992;2023-06-10T01:49:51;11.00;;;6.53;;
3249;SDS011;1637;42.020;23.992;2023-06-10T01:52:18;10.77;;;7.10;;
3249;SDS011;1637;42.020;23.992;2023-06-10T01:54:46;19.60;;;9.50;;
3249;SDS011;1637;42.020;23.992;2023-06-10T01:57:13;9.23;;;8.10;;
3249;SDS011;1637;42.020;23.992;2023-06-10T01:59:40;8.00;;;7.00;;
3249;SDS011;1637;42.020;23.992;2023-06-10T02:02:09;103.73;;;30.87;;
3249;SDS011;1637;42.020;23.992;2023-06-10T02:04:36;12.00;;;8.97;;
3249;SDS011;1637;42.020;23.992;2023-06-10T02:07:03;9.50;;;7.70;;
3249;SDS011;1637;42.020;23.992;2023-06-10T02:09:30;9.27;;;7.70;;
3249;SDS011;1637;42.020;23.992;2023-06-10T02:12:01;9.60;;;8.10;;
3249;SDS011;1637;42.020;23.992;2023-06-10T02:14:28;10.03;;;8.67;;
3249;SDS011;1637;42.020;23.992;2023-06-10T02:16:55;11.60;;;10.40;;
3249;SDS011;1637;42.020;23.992;2023-06-10T02:19:22;16.57;;;11.90;;
3249;SDS011;1637;42.020;23.992;2023-06-10T02:21:50;17.63;;;14.70;;
3249;SDS011;1637;42.020;23.992;2023-06-10T02:24:17;15.50;;;13.40;;
3249;SDS011;1637;42.020;23.992;2023-06-10T02:26:43;23.80;;;16.87;;
3249;SDS011;1637;42.020;23.992;2023-06-10T02:29:14;25.57;;;18.20;;
3249;SDS011;1637;42.020;23.992;2023-06-10T02:31:41;28.23;;;18.47;;
3249;SDS011;1637;42.020;23.992;2023-06-10T02:34:07;25.53;;;18.43;;
3249;SDS011;1637;42.020;23.992;2023-06-10T02:36:34;22.53;;;18.23;;
3249;SDS011;1637;42.020;23.992;2023-06-10T02:39:02;25.30;;;19.13;;
3249;SDS011;1637;42.020;23.992;2023-06-10T02:41:29;28.30;;;18.83;;
3249;SDS011;1637;42.020;23.992;2023-06-10T02:43:56;38.57;;;27.60;;
3249;SDS011;1637;42.020;23.992;2023-06-10T02:46:24;34.47;;;25.97;;
3249;SDS011;1637;42.020;23.992;2023-06-10T02:48:51;39.30;;;28.47;;
3249;SDS011;1637;42.020;23.992;2023-06-10T02:51:18;58.63;;;36.50;;
3249;SDS011;1637;42.020;23.992;2023-06-10T02:53:45;52.77;;;36.27;;
3249;SDS011;1637;42.020;23.992;2023-06-10T02:56:15;42.70;;;27.30;;
3249;SDS011;1637;42.020;23.992;2023-06-10T02:58:43;41.70;;;27.20;;
3249;SDS011;1637;42.020;23.992;2023-06-10T03:01:09;41.13;;;24.27;;
3249;SDS011;1637;42.020;23.992;2023-06-10T03:03:38;30.67;;;20.13;;
3249;SDS011;1637;42.020;23.992;2023-06-10T03:06:07;24.23;;;17.17;;
3249;SDS011;1637;42.020;23.992;2023-06-10T03:08:35;21.50;;;16.13;;
3249;SDS011;1637;42.020;23.992;2023-06-10T03:11:02;25.20;;;17.17;;
3249;SDS011;1637;42.020;23.992;2023-06-10T03:13:29;21.80;;;15.70;;
3249;SDS011;1637;42.020;23.992;2023-06-10T03:15:56;17.33;;;12.90;;
3249;SDS011;1637;42.020;23.992;2023-06-10T03:18:25;20.97;;;13.47;;
3249;SDS011;1637;42.020;23.992;2023-06-10T03:20:54;22.53;;;13.20;;
3249;SDS011;1637;42.020;23.992;2023-06-10T03:23:21;17.83;;;12.37;;
3249;SDS011;1637;42.020;23.992;2023-06-10T03:25:48;19.23;;;13.37;;
3249;SDS011;1637;42.020;23.992;2023-06-10T03:28:15;15.57;;;11.30;;
3249;SDS011;1637;42.020;23.992;2023-06-10T03:30:41;12.03;;;10.00;;
3249;SDS011;1637;42.020;23.992;2023-06-10T03:33:08;16.37;;;13.17;;
3249;SDS011;1637;42.020;23.992;2023-06-10T03:35:35;13.80;;;11.10;;
3249;SDS011;1637;42.020;23.992;2023-06-10T03:38:03;12.87;;;7.73;;
3249;SDS011;1637;42.020;23.992;2023-06-10T03:40:30;8.77;;;6.63;;
3249;SDS011;1637;42.020;23.992;2023-06-10T03:42:57;6.37;;;5.30;;
3249;SDS011;1637;42.020;23.992;2023-06-10T03:45:24;7.20;;;5.43;;
3249;SDS011;1637;42.020;23.992;2023-06-10T03:47:53;7.70;;;5.80;;
3249;SDS011;1637;42.020;23.992;2023-06-10T03:50:20;7.27;;;6.47;;
3249;SDS011;1637;42.020;23.992;2023-06-10T03:52:48;97.00;;;44.20;;
3249;SDS011;1637;42.020;23.992;2023-06-10T03:55:17;37.67;;;23.40;;
3249;SDS011;1637;42.020;23.992;2023-06-10T03:57:46;15.47;;;10.43;;
3249;SDS011;1637;42.020;23.992;2023-06-10T04:00:14;16.90;;;10.87;;
3249;SDS011;1637;42.020;23.992;2023-06-10T04:02:41;34.57;;;22.23;;
3249;SDS011;1637;42.020;23.992;2023-06-10T04:05:11;23.57;;;16.07;;
3249;SDS011;1637;42.020;23.992;2023-06-10T04:07:38;24.50;;;12.97;;
3249;SDS011;1637;42.020;23.992;2023-06-10T04:10:06;21.27;;;15.50;;
3249;SDS011;1637;42.020;23.992;2023-06-10T04:12:35;23.30;;;15.83;;
3249;SDS011;1637;42.020;23.992;2023-06-10T04:15:02;22.73;;;15.57;;
3249;SDS011;1637;42.020;23.992;2023-06-10T04:17:29;23.20;;;15.60;;
3249;SDS011;1637;42.020;23.992;2023-06-10T04:19:56;25.57;;;15.70;;
3249;SDS011;1637;42.020;23.992;2023-06-10T04:22:23;18.73;;;15.33;;
3249;SDS011;1637;42.020;23.992;2023-06-10T04:24:50;21.43;;;15.10;;
3249;SDS011;1637;42.020;23.992;2023-06-10T04:27:17;18.83;;;14.77;;
3249;SDS011;1637;42.020;23.992;2023-06-10T04:29:46;24.30;;;16.13;;
3249;SDS011;1637;42.020;23.992;2023-06-10T04:32:12;19.20;;;13.93;;
3249;SDS011;1637;42.020;23.992;2023-06-10T04:34:39;18.50;;;14.10;;
3249;SDS011;1637;42.020;23.992;2023-06-10T04:37:06;14.03;;;11.20;;
3249;SDS011;1637;42.020;23.992;2023-06-10T04:39:33;17.90;;;11.90;;
3249;SDS011;1637;42.020;23.992;2023-06-10T04:41:59;14.57;;;12.00;;
3249;SDS011;1637;42.020;23.992;2023-06-10T04:44:26;22.60;;;13.57;;
3249;SDS011;1637;42.020;23.992;2023-06-10T04:46:55;21.27;;;16.30;;
3249;SDS011;1637;42.020;23.992;2023-06-10T04:49:22;22.93;;;15.03;;
3249;SDS011;1637;42.020;23.992;2023-06-10T04:51:49;20.17;;;14.30;;
3249;SDS011;1637;42.020;23.992;2023-06-10T04:54:16;20.37;;;13.40;;
3249;SDS011;1637;42.020;23.992;2023-06-10T04:56:43;18.00;;;13.57;;
3249;SDS011;1637;42.020;23.992;2023-06-10T04:59:10;26.37;;;14.90;;
3249;SDS011;1637;42.020;23.992;2023-06-10T05:01:37;14.73;;;12.50;;
3249;SDS011;1637;42.020;23.992;2023-06-10T05:04:05;18.03;;;11.63;;
3249;SDS011;1637;42.020;23.992;2023-06-10T05:06:32;13.90;;;11.73;;
3249;SDS011;1637;42.020;23.992;2023-06-10T05:08:59;13.50;;;10.40;;
3249;SDS011;1637;42.020;23.992;2023-06-10T05:11:25;10.07;;;8.33;;
3249;SDS011;1637;42.020;23.992;2023-06-10T05:13:52;8.67;;;6.63;;
3249;SDS011;1637;42.020;23.992;2023-06-10T05:16:19;14.63;;;10.70;;
3249;SDS011;1637;42.020;23.992;2023-06-10T05:18:46;10.50;;;9.37;;
3249;SDS011;1637;42.020;23.992;2023-06-10T05:21:14;13.43;;;10.43;;
3249;SDS011;1637;42.020;23.992;2023-06-10T05:23:41;12.70;;;10.30;;
3249;SDS011;1637;42.020;23.992;2023-06-10T05:26:08;11.70;;;9.60;;
3249;SDS011;1637;42.020;23.992;2023-06-10T05:28:35;12.97;;;9.30;;
3249;SDS011;1637;42.020;23.992;2023-06-10T05:31:02;14.90;;;10.40;;
3249;SDS011;1637;42.020;23.992;2023-06-10T05:33:29;11.70;;;9.73;;
3249;SDS011;1637;42.020;23.992;2023-06-10T05:35:56;26.63;;;10.90;;
3249;SDS011;1637;42.020;23.992;2023-06-10T05:38:24;26.70;;;11.70;;
3249;SDS011;1637;42.020;23.992;2023-06-10T05:40:51;14.87;;;10.93;;
3249;SDS011;1637;42.020;23.992;2023-06-10T05:43:17;17.57;;;10.17;;
3249;SDS011;1637;42.020;23.992;2023-06-10T05:45:44;22.83;;;11.93;;
3249;SDS011;1637;42.020;23.992;2023-06-10T05:48:11;15.80;;;11.40;;
3249;SDS011;1637;42.020;23.992;2023-06-10T05:50:38;16.67;;;12.40;;
3249;SDS011;1637;42.020;23.992;2023-06-10T05:53:07;27.30;;;12.60;;
3249;SDS011;1637;42.020;23.992;2023-06-10T05:55:41;15.50;;;11.00;;
3249;SDS011;1637;42.020;23.992;2023-06-10T05:58:08;29.07;;;11.97;;
3249;SDS011;1637;42.020;23.992;2023-06-10T06:00:35;13.00;;;10.57;;
3249;SDS011;1637;42.020;23.992;2023-06-10T06:03:02;17.13;;;10.53;;
3249;SDS011;1637;42.020;23.992;2023-06-10T06:05:29;12.77;;;11.13;;
3249;SDS011;1637;42.020;23.992;2023-06-10T06:07:59;11.63;;;8.70;;
3249;SDS011;1637;42.020;23.992;2023-06-10T06:10:26;16.50;;;9.60;;
3249;SDS011;1637;42.020;23.992;2023-06-10T06:12:55;14.50;;;9.10;;
3249;SDS011;1637;42.020;23.992;2023-06-10T06:15:22;16.90;;;10.57;;
3249;SDS011;1637;42.020;23.992;2023-06-10T06:17:49;15.13;;;10.20;;
3249;SDS011;1637;42.020;23.992;2023-06-10T06:20:17;17.90;;;9.50;;
3249;SDS011;1637;42.020;23.992;2023-06-10T06:22:44;16.97;;;10.00;;
3249;SDS011;1637;42.020;23.992;2023-06-10T06:25:11;14.50;;;10.90;;
3249;SDS011;1637;42.020;23.992;2023-06-10T06:27:38;22.70;;;10.27;;
3249;SDS011;1637;42.020;23.992;2023-06-10T06:30:07;14.73;;;10.03;;
3249;SDS011;1637;42.020;23.992;2023-06-10T06:32:34;16.73;;;9.70;;
3249;SDS011;1637;42.020;23.992;2023-06-10T06:35:01;14.37;;;9.20;;
3249;SDS011;1637;42.020;23.992;2023-06-10T06:37:29;8.63;;;7.40;;
3249;SDS011;1637;42.020;23.992;2023-06-10T06:39:57;9.47;;;7.10;;
3249;SDS011;1637;42.020;23.992;2023-06-10T06:42:24;10.73;;;7.53;;
3249;SDS011;1637;42.020;23.992;2023-06-10T06:44:51;16.13;;;7.80;;
3249;SDS011;1637;42.020;23.992;2023-06-10T06:47:19;8.40;;;6.50;;
3249;SDS011;1637;42.020;23.992;2023-06-10T06:49:46;13.23;;;6.80;;
3249;SDS011;1637;42.020;23.992;2023-06-10T06:52:13;20.00;;;8.20;;
3249;SDS011;1637;42.020;23.992;2023-06-10T06:54:41;12.80;;;9.80;;
3249;SDS011;1637;42.020;23.992;2023-06-10T06:57:07;11.30;;;10.10;;
3249;SDS011;1637;42.020;23.992;2023-06-10T06:59:34;13.93;;;8.63;;
3249;SDS011;1637;42.020;23.992;2023-06-10T07:02:02;14.03;;;7.43;;
3249;SDS011;1637;42.020;23.992;2023-06-10T07:04:30;13.40;;;8.47;;
3249;SDS011;1637;42.020;23.992;2023-06-10T07:06:57;10.07;;;7.17;;
3249;SDS011;1637;42.020;23.992;2023-06-10T07:09:24;14.40;;;6.53;;
3249;SDS011;1637;42.020;23.992;2023-06-10T07:11:50;11.80;;;7.33;;
3249;SDS011;1637;42.020;23.992;2023-06-10T07:14:17;9.83;;;7.00;;
3249;SDS011;1637;42.020;23.992;2023-06-10T07:16:44;7.83;;;6.27;;
3249;SDS011;1637;42.020;23.992;2023-06-10T07:19:13;17.03;;;7.40;;
3249;SDS011;1637;42.020;23.992;2023-06-10T07:21:41;11.00;;;6.57;;
3249;SDS011;1637;42.020;23.992;2023-06-10T07:24:08;6.67;;;5.20;;
3249;SDS011;1637;42.020;23.992;2023-06-10T07:26:35;4.63;;;3.73;;
3249;SDS011;1637;42.020;23.992;2023-06-10T07:29:02;8.90;;;5.33;;
3249;SDS011;1637;42.020;23.992;2023-06-10T07:31:28;11.20;;;5.30;;
3249;SDS011;1637;42.020;23.992;2023-06-10T07:33:55;15.37;;;8.03;;
3249;SDS011;1637;42.020;23.992;2023-06-10T07:36:22;9.50;;;7.90;;
3249;SDS011;1637;42.020;23.992;2023-06-10T07:38:50;8.30;;;7.43;;
3249;SDS011;1637;42.020;23.992;2023-06-10T07:41:17;13.67;;;7.53;;
3249;SDS011;1637;42.020;23.992;2023-06-10T07:43:44;14.50;;;8.30;;
3249;SDS011;1637;42.020;23.992;2023-06-10T07:46:11;5.70;;;5.23;;
3249;SDS011;1637;42.020;23.992;2023-06-10T07:48:38;11.20;;;6.97;;
3249;SDS011;1637;42.020;23.992;2023-06-10T07:51:05;5.87;;;5.33;;
3249;SDS011;1637;42.020;23.992;2023-06-10T07:53:32;10.77;;;5.13;;
3249;SDS011;1637;42.020;23.992;2023-06-10T07:56:00;10.67;;;4.43;;
3249;SDS011;1637;42.020;23.992;2023-06-10T07:58:27;4.03;;;3.37;;
3249;SDS011;1637;42.020;23.992;2023-06-10T08:00:53;14.40;;;3.70;;
3249;SDS011;1637;42.020;23.992;2023-06-10T08:03:20;3.33;;;3.03;;
3249;SDS011;1637;42.020;23.992;2023-06-10T08:05:47;6.77;;;3.10;;
3249;SDS011;1637;42.020;23.992;2023-06-10T08:08:14;4.37;;;3.30;;
3249;SDS011;1637;42.020;23.992;2023-06-10T08:10:41;4.57;;;3.20;;
3249;SDS011;1637;42.020;23.992;2023-06-10T08:13:09;7.47;;;3.80;;
3249;SDS011;1637;42.020;23.992;2023-06-10T08:15:36;3.43;;;2.60;;
3249;SDS011;1637;42.020;23.992;2023-06-10T08:18:03;7.17;;;3.43;;
3249;SDS011;1637;42.020;23.992;2023-06-10T08:20:30;6.70;;;2.50;;
3249;SDS011;1637;42.020;23.992;2023-06-10T08:22:57;8.57;;;2.80;;
3249;SDS011;1637;42.020;23.992;2023-06-10T08:25:24;6.13;;;3.50;;
3249;SDS011;1637;42.020;23.992;2023-06-10T08:27:51;11.30;;;3.17;;
3249;SDS011;1637;42.020;23.992;2023-06-10T08:30:19;3.10;;;2.80;;
3249;SDS011;1637;42.020;23.992;2023-06-10T08:32:46;3.63;;;2.53;;
3249;SDS011;1637;42.020;23.992;2023-06-10T08:35:13;12.23;;;3.10;;
3249;SDS011;1637;42.020;23.992;2023-06-10T08:37:39;11.50;;;3.20;;
3249;SDS011;1637;42.020;23.992;2023-06-10T08:40:07;3.20;;;2.40;;
3249;SDS011;1637;42.020;23.992;2023-06-10T08:42:38;4.63;;;2.47;;
3249;SDS011;1637;42.020;23.992;2023-06-10T08:45:07;8.80;;;2.93;;
3249;SDS011;1637;42.020;23.992;2023-06-10T08:47:44;5.90;;;2.97;;
3249;SDS011;1637;42.020;23.992;2023-06-10T08:50:11;5.80;;;3.53;;
3249;SDS011;1637;42.020;23.992;2023-06-10T08:52:41;7.30;;;2.90;;
3249;SDS011;1637;42.020;23.992;2023-06-10T08:55:11;5.47;;;2.83;;
3249;SDS011;1637;42.020;23.992;2023-06-10T08:57:41;4.23;;;2.30;;
3249;SDS011;1637;42.020;23.992;2023-06-10T09:00:10;5.87;;;3.07;;
3249;SDS011;1637;42.020;23.992;2023-06-10T09:02:38;6.77;;;2.87;;
3249;SDS011;1637;42.020;23.992;2023-06-10T09:05:07;4.60;;;2.67;;
3249;SDS011;1637;42.020;23.992;2023-06-10T09:07:35;3.70;;;3.00;;
3249;SDS011;1637;42.020;23.992;2023-06-10T09:10:02;3.30;;;2.30;;
3249;SDS011;1637;42.020;23.992;2023-06-10T09:12:32;3.00;;;2.70;;
3249;SDS011;1637;42.020;23.992;2023-06-10T09:15:00;2.93;;;2.43;;
3249;SDS011;1637;42.020;23.992;2023-06-10T09:17:27;2.30;;;2.10;;
3249;SDS011;1637;42.020;23.992;2023-06-10T09:19:54;5.50;;;3.13;;
3249;SDS011;1637;42.020;23.992;2023-06-10T09:22:23;3.47;;;3.17;;
3249;SDS011;1637;42.020;23.992;2023-06-10T09:24:51;5.70;;;3.10;;
3249;SDS011;1637;42.020;23.992;2023-06-10T09:27:29;4.90;;;3.00;;
3249;SDS011;1637;42.020;23.992;2023-06-10T09:29:56;3.77;;;2.50;;
3249;SDS011;1637;42.020;23.992;2023-06-10T09:32:24;7.20;;;3.37;;
3249;SDS011;1637;42.020;23.992;2023-06-10T09:34:51;4.00;;;2.87;;
3249;SDS011;1637;42.020;23.992;2023-06-10T09:37:21;3.97;;;2.73;;
3249;SDS011;1637;42.020;23.992;2023-06-10T09:40:05;3.73;;;3.00;;
3249;SDS011;1637;42.020;23.992;2023-06-10T09:42:35;3.83;;;2.73;;
3249;SDS011;1637;42.020;23.992;2023-06-10T09:45:04;3.23;;;2.90;;
3249;SDS011;1637;42.020;23.992;2023-06-10T09:47:32;3.40;;;2.87;;
3249;SDS011;1637;42.020;23.992;2023-06-10T09:49:59;7.00;;;3.03;;
3249;SDS011;1637;42.020;23.992;2023-06-10T09:52:27;3.20;;;2.10;;
3249;SDS011;1637;42.020;23.992;2023-06-10T09:54:58;4.17;;;2.47;;
3249;SDS011;1637;42.020;23.992;2023-06-10T09:57:29;3.43;;;2.60;;
3249;SDS011;1637;42.020;23.992;2023-06-10T09:59:58;3.33;;;2.80;;
3249;SDS011;1637;42.020;23.992;2023-06-10T10:02:30;4.50;;;3.00;;
3249;SDS011;1637;42.020;23.992;2023-06-10T10:05:01;2.63;;;2.13;;
3249;SDS011;1637;42.020;23.992;2023-06-10T10:07:29;6.33;;;3.00;;
3249;SDS011;1637;42.020;23.992;2023-06-10T10:09:56;5.03;;;2.87;;
3249;SDS011;1637;42.020;23.992;2023-06-10T10:12:22;4.20;;;2.20;;
3249;SDS011;1637;42.020;23.992;2023-06-10T10:14:52;6.80;;;2.30;;
3249;SDS011;1637;42.020;23.992;2023-06-10T10:17:20;6.63;;;3.10;;
3249;SDS011;1637;42.020;23.992;2023-06-10T10:19:50;2.80;;;2.60;;
3249;SDS011;1637;42.020;23.992;2023-06-10T10:22:25;2.90;;;2.37;;
3249;SDS011;1637;42.020;23.992;2023-06-10T10:24:53;5.10;;;2.37;;
3249;SDS011;1637;42.020;23.992;2023-06-10T10:27:26;5.00;;;2.23;;
3249;SDS011;1637;42.020;23.992;2023-06-10T10:29:55;4.60;;;3.63;;
3249;SDS011;1637;42.020;23.992;2023-06-10T10:32:26;3.60;;;2.60;;
3249;SDS011;1637;42.020;23.992;2023-06-10T10:35:02;7.90;;;4.23;;
3249;SDS011;1637;42.020;23.992;2023-06-10T10:37:33;4.70;;;2.90;;
3249;SDS011;1637;42.020;23.992;2023-06-10T10:40:01;4.93;;;3.37;;
3249;SDS011;1637;42.020;23.992;2023-06-10T10:42:30;5.27;;;2.97;;
3249;SDS011;1637;42.020;23.992;2023-06-10T10:44:58;3.30;;;2.77;;
3249;SDS011;1637;42.020;23.992;2023-06-10T10:47:26;4.43;;;2.53;;
3249;SDS011;1637;42.020;23.992;2023-06-10T10:49:55;2.30;;;2.10;;
3249;SDS011;1637;42.020;23.992;2023-06-10T10:52:24;2.73;;;2.50;;
3249;SDS011;1637;42.020;23.992;2023-06-10T10:54:52;5.27;;;2.53;;
3249;SDS011;1637;42.020;23.992;2023-06-10T10:57:20;3.87;;;2.60;;
3249;SDS011;1637;42.020;23.992;2023-06-10T10:59:52;4.17;;;3.10;;
3249;SDS011;1637;42.020;23.992;2023-06-10T11:02:40;6.50;;;3.70;;
3249;SDS011;1637;42.020;23.992;2023-06-10T11:05:08;4.50;;;3.07;;
3249;SDS011;1637;42.020;23.992;2023-06-10T11:07:37;6.10;;;3.77;;
3249;SDS011;1637;42.020;23.992;2023-06-10T11:10:06;4.10;;;2.80;;
3249;SDS011;1637;42.020;23.992;2023-06-10T11:12:41;7.50;;;3.37;;
3249;SDS011;1637;42.020;23.992;2023-06-10T11:15:18;5.77;;;3.00;;
3249;SDS011;1637;42.020;23.992;2023-06-10T11:20:59;6.73;;;4.10;;
3249;SDS011;1637;42.020;23.992;2023-06-10T11:23:34;3.80;;;3.50;;
3249;SDS011;1637;42.020;23.992;2023-06-10T11:26:14;2.87;;;2.37;;
3249;SDS011;1637;42.020;23.992;2023-06-10T11:29:05;3.47;;;2.37;;
3249;SDS011;1637;42.020;23.992;2023-06-10T11:34:24;2.23;;;1.67;;
3249;SDS011;1637;42.020;23.992;2023-06-10T11:36:52;2.10;;;1.90;;
3249;SDS011;1637;42.020;23.992;2023-06-10T11:39:20;5.03;;;2.00;;
3249;SDS011;1637;42.020;23.992;2023-06-10T11:41:48;2.40;;;2.20;;
3249;SDS011;1637;42.020;23.992;2023-06-10T11:44:17;9.23;;;2.47;;
3249;SDS011;1637;42.020;23.992;2023-06-10T11:46:44;4.30;;;2.20;;
3249;SDS011;1637;42.020;23.992;2023-06-10T11:49:11;7.43;;;2.73;;
3249;SDS011;1637;42.020;23.992;2023-06-10T11:51:40;5.03;;;2.17;;
3249;SDS011;1637;42.020;23.992;2023-06-10T11:54:14;2.43;;;2.13;;
3249;SDS011;1637;42.020;23.992;2023-06-10T11:56:42;2.20;;;2.10;;
3249;SDS011;1637;42.020;23.992;2023-06-10T11:59:09;10.73;;;2.03;;
3249;SDS011;1637;42.020;23.992;2023-06-10T12:01:36;6.23;;;2.27;;
3249;SDS011;1637;42.020;23.992;2023-06-10T12:04:05;3.80;;;2.37;;
3249;SDS011;1637;42.020;23.992;2023-06-10T12:06:41;2.30;;;2.00;;
3249;SDS011;1637;42.020;23.992;2023-06-10T12:09:13;2.60;;;2.40;;
3249;SDS011;1637;42.020;23.992;2023-06-10T12:11:44;2.93;;;2.30;;
3249;SDS011;1637;42.020;23.992;2023-06-10T12:14:11;5.43;;;1.70;;
3249;SDS011;1637;42.020;23.992;2023-06-10T12:16:38;2.23;;;2.03;;
3249;SDS011;1637;42.020;23.992;2023-06-10T12:19:05;3.17;;;2.00;;
3249;SDS011;1637;42.020;23.992;2023-06-10T12:21:33;3.33;;;2.80;;
3249;SDS011;1637;42.020;23.992;2023-06-10T12:24:06;2.60;;;2.40;;
3249;SDS011;1637;42.020;23.992;2023-06-10T12:26:38;2.17;;;1.90;;
3249;SDS011;1637;42.020;23.992;2023-06-10T12:29:16;6.70;;;2.27;;
3249;SDS011;1637;42.020;23.992;2023-06-10T12:31:54;2.23;;;1.80;;
3249;SDS011;1637;42.020;23.992;2023-06-10T12:34:32;4.97;;;2.40;;
3249;SDS011;1637;42.020;23.992;2023-06-10T12:37:03;3.43;;;2.50;;
3249;SDS011;1637;42.020;23.992;2023-06-10T12:39:33;2.47;;;2.27;;
3249;SDS011;1637;42.020;23.992;2023-06-10T12:42:00;6.27;;;2.60;;
3249;SDS011;1637;42.020;23.992;2023-06-10T12:44:34;3.40;;;3.03;;
3249;SDS011;1637;42.020;23.992;2023-06-10T12:47:06;2.90;;;2.10;;
3249;SDS011;1637;42.020;23.992;2023-06-10T12:49:34;2.50;;;2.07;;
3249;SDS011;1637;42.020;23.992;2023-06-10T12:52:01;4.30;;;2.10;;
3249;SDS011;1637;42.020;23.992;2023-06-10T12:54:29;2.10;;;2.00;;
3249;SDS011;1637;42.020;23.992;2023-06-10T12:56:57;7.67;;;2.00;;
3249;SDS011;1637;42.020;23.992;2023-06-10T12:59:24;3.13;;;2.20;;
3249;SDS011;1637;42.020;23.992;2023-06-10T13:01:53;3.60;;;2.00;;
3249;SDS011;1637;42.020;23.992;2023-06-10T13:04:21;4.50;;;2.60;;
3249;SDS011;1637;42.020;23.992;2023-06-10T13:06:48;2.37;;;2.10;;
3249;SDS011;1637;42.020;23.992;2023-06-10T13:09:15;9.80;;;1.90;;
3249;SDS011;1637;42.020;23.992;2023-06-10T13:11:42;3.00;;;2.50;;
3249;SDS011;1637;42.020;23.992;2023-06-10T13:14:11;2.83;;;2.03;;
3249;SDS011;1637;42.020;23.992;2023-06-10T13:16:38;2.30;;;2.10;;
3249;SDS011;1637;42.020;23.992;2023-06-10T13:19:05;2.70;;;2.30;;
3249;SDS011;1637;42.020;23.992;2023-06-10T13:21:32;11.87;;;2.93;;
3249;SDS011;1637;42.020;23.992;2023-06-10T13:23:59;3.70;;;2.87;;
3249;SDS011;1637;42.020;23.992;2023-06-10T13:26:26;2.60;;;2.33;;
3249;SDS011;1637;42.020;23.992;2023-06-10T13:28:53;3.03;;;2.37;;
3249;SDS011;1637;42.020;23.992;2023-06-10T13:31:21;2.70;;;2.00;;
3249;SDS011;1637;42.020;23.992;2023-06-10T13:33:48;3.97;;;2.43;;
3249;SDS011;1637;42.020;23.992;2023-06-10T13:36:15;2.50;;;2.00;;
3249;SDS011;1637;42.020;23.992;2023-06-10T13:38:42;5.00;;;2.63;;
3249;SDS011;1637;42.020;23.992;2023-06-10T13:41:08;2.47;;;2.27;;
3249;SDS011;1637;42.020;23.992;2023-06-10T13:43:37;6.63;;;3.67;;
3249;SDS011;1637;42.020;23.992;2023-06-10T13:46:04;5.67;;;2.67;;
3249;SDS011;1637;42.020;23.992;2023-06-10T13:48:32;2.47;;;2.27;;
3249;SDS011;1637;42.020;23.992;2023-06-10T13:51:00;6.93;;;2.27;;
3249;SDS011;1637;42.020;23.992;2023-06-10T13:53:27;6.70;;;3.33;;
3249;SDS011;1637;42.020;23.992;2023-06-10T13:55:54;6.80;;;2.70;;
3249;SDS011;1637;42.020;23.992;2023-06-10T13:58:20;3.23;;;2.40;;
3249;SDS011;1637;42.020;23.992;2023-06-10T14:00:47;4.87;;;2.60;;
3249;SDS011;1637;42.020;23.992;2023-06-10T14:03:14;6.07;;;2.60;;
3249;SDS011;1637;42.020;23.992;2023-06-10T14:05:42;4.40;;;2.73;;
3249;SDS011;1637;42.020;23.992;2023-06-10T14:08:09;5.10;;;2.80;;
3249;SDS011;1637;42.020;23.992;2023-06-10T14:10:36;5.03;;;2.40;;
3249;SDS011;1637;42.020;23.992;2023-06-10T14:13:03;5.07;;;2.77;;
3249;SDS011;1637;42.020;23.992;2023-06-10T14:15:30;3.80;;;2.20;;
3249;SDS011;1637;42.020;23.992;2023-06-10T14:17:57;5.20;;;2.50;;
3249;SDS011;1637;42.020;23.992;2023-06-10T14:20:24;5.10;;;2.30;;
3249;SDS011;1637;42.020;23.992;2023-06-10T14:22:53;4.40;;;2.67;;
3249;SDS011;1637;42.020;23.992;2023-06-10T14:25:20;2.40;;;2.20;;
3249;SDS011;1637;42.020;23.992;2023-06-10T14:27:46;6.00;;;2.43;;
3249;SDS011;1637;42.020;23.992;2023-06-10T14:30:13;2.43;;;2.23;;
3249;SDS011;1637;42.020;23.992;2023-06-10T14:32:41;4.47;;;3.23;;
3249;SDS011;1637;42.020;23.992;2023-06-10T14:35:08;3.70;;;2.13;;
3249;SDS011;1637;42.020;23.992;2023-06-10T14:37:35;3.10;;;2.30;;
3249;SDS011;1637;42.020;23.992;2023-06-10T14:40:04;4.60;;;2.60;;
3249;SDS011;1637;42.020;23.992;2023-06-10T14:42:31;4.77;;;2.63;;
3249;SDS011;1637;42.020;23.992;2023-06-10T14:44:58;5.53;;;2.70;;
3249;SDS011;1637;42.020;23.992;2023-06-10T14:47:25;3.80;;;2.90;;
3249;SDS011;1637;42.020;23.992;2023-06-10T14:49:52;3.63;;;2.37;;
3249;SDS011;1637;42.020;23.992;2023-06-10T14:52:19;6.73;;;2.50;;
3249;SDS011;1637;42.020;23.992;2023-06-10T14:54:45;2.43;;;2.10;;
3249;SDS011;1637;42.020;23.992;2023-06-10T14:57:13;4.20;;;2.50;;
3249;SDS011;1637;42.020;23.992;2023-06-10T14:59:40;4.20;;;2.70;;
3249;SDS011;1637;42.020;23.992;2023-06-10T15:02:07;4.90;;;2.30;;